createdAt,value
2022-09-25T00:00:16.817Z,11.78
2022-09-25T00:01:17.346Z,11.80
2022-09-25T00:02:16.899Z,11.80
2022-09-25T00:03:16.517Z,11.80
2022-09-25T00:04:16.445Z,11.78
2022-09-25T00:05:16.867Z,11.78
2022-09-25T00:06:16.293Z,11.78
2022-09-25T00:07:16.730Z,11.75
2022-09-25T00:08:17.160Z,11.75
2022-09-25T00:09:16.597Z,11.75
2022-09-25T00:10:17.032Z,12.23
2022-09-25T00:11:16.465Z,12.23
2022-09-25T00:12:17.291Z,11.68
2022-09-25T00:13:16.788Z,11.68
2022-09-25T00:14:17.282Z,11.68
2022-09-25T00:15:16.750Z,11.63
2022-09-25T00:16:17.275Z,11.63
2022-09-25T00:17:16.817Z,11.63
2022-09-25T00:18:17.288Z,12.19
2022-09-25T00:19:16.739Z,11.63
2022-09-25T00:20:17.217Z,11.64
2022-09-25T00:21:16.643Z,11.64
2022-09-25T00:22:16.347Z,11.64
2022-09-25T00:23:16.854Z,12.21
2022-09-25T00:24:16.275Z,12.23
2022-09-25T00:25:16.699Z,11.57
2022-09-25T00:26:17.141Z,11.57
2022-09-25T00:27:16.614Z,11.57
2022-09-25T00:28:18.348Z,11.54
2022-09-25T00:29:16.872Z,11.54
2022-09-25T00:30:16.333Z,11.54
2022-09-25T00:31:16.843Z,11.53
2022-09-25T00:32:16.350Z,11.53
2022-09-25T00:33:16.819Z,11.54
2022-09-25T00:34:17.287Z,11.54
2022-09-25T00:35:16.716Z,11.54
2022-09-25T00:36:17.168Z,11.54
2022-09-25T00:37:16.593Z,12.13
2022-09-25T00:38:17.040Z,11.54
2022-09-25T00:39:16.482Z,11.54
2022-09-25T00:40:16.950Z,11.54
2022-09-25T00:41:16.502Z,11.54
2022-09-25T00:42:16.541Z,11.53
2022-09-25T00:43:17.037Z,11.53
2022-09-25T00:44:16.495Z,11.53
2022-09-25T00:45:16.958Z,12.12
2022-09-25T00:46:16.461Z,12.12
2022-09-25T00:47:17.044Z,11.49
2022-09-25T00:48:16.484Z,11.49
2022-09-25T00:49:16.999Z,11.49
2022-09-25T00:50:16.419Z,12.12
2022-09-25T00:51:16.850Z,12.12
2022-09-25T00:52:16.400Z,12.08
2022-09-25T00:53:16.864Z,12.12
2022-09-25T00:54:16.284Z,12.12
2022-09-25T00:55:16.717Z,11.49
2022-09-25T00:56:17.163Z,11.49
2022-09-25T00:57:16.617Z,11.49
2022-09-25T00:58:17.078Z,11.46
2022-09-25T00:59:16.554Z,11.46
2022-09-25T01:00:17.019Z,11.46
2022-09-25T01:01:16.510Z,12.10
2022-09-25T01:02:17.165Z,12.13
2022-09-25T01:03:16.687Z,12.13
2022-09-25T01:04:17.149Z,12.13
2022-09-25T01:05:16.648Z,12.14
2022-09-25T01:06:17.243Z,12.10
2022-09-25T01:07:16.699Z,11.44
2022-09-25T01:08:17.140Z,11.46
2022-09-25T01:09:16.565Z,11.46
2022-09-25T01:10:16.989Z,11.46
2022-09-25T01:11:16.431Z,11.46
2022-09-25T01:12:17.065Z,12.07
2022-09-25T01:13:16.503Z,11.46
2022-09-25T01:14:16.971Z,11.46
2022-09-25T01:15:16.439Z,11.46
2022-09-25T01:16:16.930Z,12.06
2022-09-25T01:17:16.702Z,12.07
2022-09-25T01:18:17.161Z,12.04
2022-09-25T01:19:16.588Z,12.04
2022-09-25T01:20:17.012Z,12.04
2022-09-25T01:21:16.475Z,12.00
2022-09-25T01:22:16.952Z,12.03
2022-09-25T01:23:16.375Z,12.04
2022-09-25T01:24:16.815Z,11.43
2022-09-25T01:25:17.272Z,11.43
2022-09-25T01:26:16.736Z,11.43
2022-09-25T01:27:17.227Z,12.04
2022-09-25T01:28:16.753Z,12.04
2022-09-25T01:29:17.212Z,12.01
2022-09-25T01:30:16.680Z,12.03
2022-09-25T01:31:17.170Z,11.46
2022-09-25T01:32:16.554Z,11.46
2022-09-25T01:33:17.031Z,11.46
2022-09-25T01:34:16.456Z,11.46
2022-09-25T01:35:16.895Z,11.46
2022-09-25T01:36:16.390Z,12.03
2022-09-25T01:37:16.831Z,12.03
2022-09-25T01:38:17.283Z,12.07
2022-09-25T01:39:16.714Z,12.06
2022-09-25T01:40:17.268Z,11.51
2022-09-25T01:41:16.874Z,11.51
2022-09-25T01:42:16.553Z,11.51
2022-09-25T01:43:17.040Z,12.03
2022-09-25T01:44:16.483Z,11.57
2022-09-25T01:45:16.960Z,11.57
2022-09-25T01:46:16.467Z,11.57
2022-09-25T01:47:17.020Z,12.08
2022-09-25T01:48:16.477Z,11.53
2022-09-25T01:49:16.932Z,11.53
2022-09-25T01:50:16.355Z,11.53
2022-09-25T01:51:16.783Z,12.08
2022-09-25T01:52:16.549Z,12.08
2022-09-25T01:53:16.986Z,12.10
2022-09-25T01:54:16.403Z,12.10
2022-09-25T01:55:16.876Z,11.47
2022-09-25T01:56:16.326Z,11.43
2022-09-25T01:57:16.835Z,11.43
2022-09-25T01:58:16.337Z,11.43
2022-09-25T01:59:16.843Z,12.13
2022-09-25T02:00:16.298Z,11.39
2022-09-25T02:01:16.810Z,11.39
2022-09-25T02:02:16.496Z,11.39
2022-09-25T02:03:17.051Z,12.06
2022-09-25T02:04:16.498Z,12.06
2022-09-25T02:05:16.933Z,12.07
2022-09-25T02:06:16.397Z,12.06
2022-09-25T02:07:16.828Z,12.03
2022-09-25T02:08:17.256Z,12.00
2022-09-25T02:09:16.692Z,11.99
2022-09-25T02:10:16.383Z,11.36
2022-09-25T02:11:16.872Z,11.36
2022-09-25T02:12:17.121Z,11.36
2022-09-25T02:13:16.591Z,11.99
2022-09-25T02:14:17.056Z,11.97
2022-09-25T02:15:16.463Z,12.00
2022-09-25T02:16:16.974Z,11.97
2022-09-25T02:17:16.529Z,11.99
2022-09-25T02:18:16.950Z,11.36
2022-09-25T02:19:16.419Z,11.36
2022-09-25T02:20:16.854Z,11.36
2022-09-25T02:21:16.277Z,11.97
2022-09-25T02:22:16.902Z,11.97
2022-09-25T02:23:16.328Z,11.96
2022-09-25T02:24:16.780Z,11.33
2022-09-25T02:25:17.265Z,11.33
2022-09-25T02:26:16.703Z,11.33
2022-09-25T02:27:17.166Z,11.34
2022-09-25T02:28:16.648Z,11.34
2022-09-25T02:29:17.130Z,11.34
2022-09-25T02:30:16.592Z,11.96
2022-09-25T02:31:17.124Z,11.97
2022-09-25T02:32:16.323Z,11.97
2022-09-25T02:33:16.755Z,11.94
2022-09-25T02:34:17.338Z,11.96
2022-09-25T02:35:16.287Z,11.93
2022-09-25T02:36:16.705Z,11.97
2022-09-25T02:37:17.144Z,11.94
2022-09-25T02:38:16.589Z,11.36
2022-09-25T02:39:17.056Z,11.37
2022-09-25T02:40:16.562Z,11.39
2022-09-25T02:41:17.105Z,11.39
2022-09-25T02:42:16.566Z,11.39
2022-09-25T02:43:17.086Z,11.42
2022-09-25T02:44:16.550Z,11.42
2022-09-25T02:45:17.005Z,11.42
2022-09-25T02:46:16.503Z,11.90
2022-09-25T02:47:17.043Z,11.43
2022-09-25T02:48:16.511Z,11.43
2022-09-25T02:49:16.932Z,11.43
2022-09-25T02:50:16.348Z,11.43
2022-09-25T02:51:16.783Z,11.43
2022-09-25T02:52:16.480Z,11.43
2022-09-25T02:53:16.926Z,11.88
2022-09-25T02:54:16.349Z,11.42
2022-09-25T02:55:16.839Z,11.42
2022-09-25T02:56:16.301Z,11.46
2022-09-25T02:57:16.756Z,11.46
2022-09-25T02:58:17.226Z,11.46
2022-09-25T02:59:16.705Z,11.42
2022-09-25T03:00:17.217Z,11.46
2022-09-25T03:01:16.785Z,11.46
2022-09-25T03:02:17.344Z,11.47
2022-09-25T03:03:16.910Z,11.47
2022-09-25T03:04:16.350Z,11.47
2022-09-25T03:05:16.782Z,12.00
2022-09-25T03:06:17.215Z,11.44
2022-09-25T03:07:16.658Z,11.49
2022-09-25T03:08:17.153Z,11.49
2022-09-25T03:09:16.576Z,11.49
2022-09-25T03:10:17.054Z,11.51
2022-09-25T03:11:16.541Z,11.51
2022-09-25T03:12:17.127Z,11.51
2022-09-25T03:13:16.589Z,11.50
2022-09-25T03:14:17.052Z,11.50
2022-09-25T03:15:16.507Z,11.50
2022-09-25T03:16:17.015Z,11.92
2022-09-25T03:17:16.538Z,11.50
2022-09-25T03:18:16.959Z,11.50
2022-09-25T03:19:16.386Z,11.51
2022-09-25T03:20:16.853Z,11.51
2022-09-25T03:21:16.285Z,11.51
2022-09-25T03:22:16.647Z,11.86
2022-09-25T03:23:17.141Z,11.88
2022-09-25T03:24:16.597Z,11.50
2022-09-25T03:25:17.075Z,11.50
2022-09-25T03:26:16.528Z,11.50
2022-09-25T03:27:17.259Z,11.49
2022-09-25T03:28:16.965Z,11.51
2022-09-25T03:29:16.429Z,11.51
2022-09-25T03:30:16.901Z,11.51
2022-09-25T03:31:16.418Z,11.51
2022-09-25T03:32:17.122Z,11.94
2022-09-25T03:33:16.542Z,11.96
2022-09-25T03:34:16.963Z,11.51
2022-09-25T03:35:16.408Z,11.51
2022-09-25T03:36:16.871Z,11.51
2022-09-25T03:37:16.310Z,12.00
2022-09-25T03:38:16.750Z,12.00
2022-09-25T03:39:17.235Z,12.00
2022-09-25T03:40:16.780Z,11.55
2022-09-25T03:41:16.438Z,11.55
2022-09-25T03:42:16.438Z,11.53
2022-09-25T03:43:16.909Z,11.53
2022-09-25T03:44:16.423Z,11.53
2022-09-25T03:45:16.875Z,12.03
2022-09-25T03:46:16.398Z,11.55
2022-09-25T03:47:16.911Z,11.55
2022-09-25T03:48:16.400Z,11.55
2022-09-25T03:49:16.849Z,11.57
2022-09-25T03:50:17.318Z,11.55
2022-09-25T03:51:16.853Z,11.57
2022-09-25T03:52:16.665Z,11.57
2022-09-25T03:53:17.119Z,11.57
2022-09-25T03:54:16.566Z,11.57
2022-09-25T03:55:17.034Z,11.57
2022-09-25T03:56:16.509Z,11.60
2022-09-25T03:57:16.958Z,11.60
2022-09-25T03:58:16.405Z,11.58
2022-09-25T03:59:16.888Z,11.61
2022-09-25T04:00:16.398Z,11.61
2022-09-25T04:01:16.896Z,11.61
2022-09-25T04:02:16.398Z,11.61
2022-09-25T04:03:16.929Z,11.60
2022-09-25T04:04:16.386Z,11.60
2022-09-25T04:05:16.880Z,11.61
2022-09-25T04:06:16.321Z,11.61
2022-09-25T04:07:16.786Z,11.60
2022-09-25T04:08:17.224Z,11.60
2022-09-25T04:09:16.712Z,11.57
2022-09-25T04:10:17.220Z,11.61
2022-09-25T04:11:16.702Z,11.58
2022-09-25T04:12:16.348Z,11.58
2022-09-25T04:13:16.820Z,11.55
2022-09-25T04:14:17.284Z,11.55
2022-09-25T04:15:16.748Z,11.53
2022-09-25T04:16:16.507Z,11.53
2022-09-25T04:17:17.098Z,11.53
2022-09-25T04:18:16.523Z,11.93
2022-09-25T04:19:16.944Z,11.53
2022-09-25T04:20:16.382Z,11.51
2022-09-25T04:21:16.821Z,11.49
2022-09-25T04:22:17.299Z,11.49
2022-09-25T04:23:16.747Z,11.50
2022-09-25T04:24:17.229Z,11.50
2022-09-25T04:25:19.545Z,11.50
2022-09-25T04:26:16.995Z,11.49
2022-09-25T04:27:16.496Z,11.51
2022-09-25T04:28:16.971Z,11.51
2022-09-25T04:29:16.454Z,11.51
2022-09-25T04:30:16.905Z,11.47
2022-09-25T04:31:16.341Z,11.47
2022-09-25T04:32:16.557Z,11.47
2022-09-25T04:33:16.990Z,11.47
2022-09-25T04:34:16.447Z,11.47
2022-09-25T04:35:16.880Z,11.43
2022-09-25T04:36:16.298Z,11.43
2022-09-25T04:37:16.732Z,11.46
2022-09-25T04:38:17.191Z,11.44
2022-09-25T04:39:16.648Z,11.44
2022-09-25T04:40:17.143Z,11.43
2022-09-25T04:41:16.759Z,11.44
2022-09-25T04:42:16.975Z,11.44
2022-09-25T04:43:16.423Z,11.44
2022-09-25T04:44:16.901Z,11.46
2022-09-25T04:45:16.372Z,11.44
2022-09-25T04:46:20.311Z,11.42
2022-09-25T04:47:17.157Z,11.42
2022-09-25T04:48:16.587Z,11.42
2022-09-25T04:49:17.030Z,11.42
2022-09-25T04:50:16.467Z,11.40
2022-09-25T04:51:16.909Z,11.40
2022-09-25T04:52:16.550Z,11.43
2022-09-25T04:53:17.021Z,11.44
2022-09-25T04:54:16.475Z,11.46
2022-09-25T04:55:16.936Z,11.49
2022-09-25T04:56:16.862Z,11.46
2022-09-25T04:57:27.564Z,11.46
2022-09-25T04:58:17.040Z,11.46
2022-09-25T04:59:16.531Z,11.43
2022-09-25T05:00:16.992Z,11.44
2022-09-25T05:01:16.529Z,11.44
2022-09-25T05:02:16.427Z,11.44
2022-09-25T05:03:17.096Z,11.43
2022-09-25T05:04:16.771Z,11.43
2022-09-25T05:05:17.213Z,11.42
2022-09-25T05:06:16.635Z,11.46
2022-09-25T05:07:17.075Z,11.46
2022-09-25T05:08:16.537Z,11.44
2022-09-25T05:09:17.028Z,11.46
2022-09-25T05:10:16.512Z,11.44
2022-09-25T05:11:16.969Z,11.43
2022-09-25T05:12:16.467Z,11.43
2022-09-25T05:13:16.948Z,11.46
2022-09-25T05:14:16.394Z,11.46
2022-09-25T05:15:16.819Z,11.46
2022-09-25T05:16:17.285Z,11.49
2022-09-25T05:17:16.815Z,11.49
2022-09-25T05:18:17.261Z,11.49
2022-09-25T05:19:16.716Z,11.79
2022-09-25T05:20:17.425Z,11.78
2022-09-25T05:21:16.843Z,11.47
2022-09-25T05:22:16.900Z,11.46
2022-09-25T05:23:16.374Z,11.46
2022-09-25T05:24:16.857Z,11.42
2022-09-25T05:25:16.342Z,11.42
2022-09-25T05:26:16.824Z,11.43
2022-09-25T05:27:17.302Z,11.43
2022-09-25T05:28:16.760Z,11.40
2022-09-25T05:29:17.207Z,11.40
2022-09-25T05:30:16.664Z,11.40
2022-09-25T05:31:17.102Z,11.68
2022-09-25T05:32:16.734Z,11.37
2022-09-25T05:33:17.151Z,11.37
2022-09-25T05:34:16.618Z,11.37
2022-09-25T05:35:17.035Z,11.71
2022-09-25T05:36:16.496Z,11.71
2022-09-25T05:37:16.942Z,11.39
2022-09-25T05:38:16.429Z,11.39
2022-09-25T05:39:16.933Z,11.39
2022-09-25T05:40:16.487Z,11.75
2022-09-25T05:41:17.134Z,11.75
2022-09-25T05:42:16.415Z,11.76
2022-09-25T05:43:16.859Z,11.80
2022-09-25T05:44:16.318Z,11.43
2022-09-25T05:45:16.741Z,11.43
2022-09-25T05:46:17.184Z,11.43
2022-09-25T05:47:16.743Z,11.43
2022-09-25T05:48:17.172Z,11.43
2022-09-25T05:49:16.646Z,11.80
2022-09-25T05:50:17.091Z,11.80
2022-09-25T05:51:16.542Z,11.82
2022-09-25T05:52:16.337Z,11.79
2022-09-25T05:53:16.831Z,11.76
2022-09-25T05:54:17.313Z,11.80
2022-09-25T05:55:16.777Z,11.79
2022-09-25T05:56:17.244Z,11.49
2022-09-25T05:57:16.684Z,11.49
2022-09-25T05:58:17.114Z,11.49
2022-09-25T05:59:16.585Z,11.78
2022-09-25T06:00:17.012Z,11.85
2022-09-25T06:01:16.434Z,11.86
2022-09-25T06:02:17.031Z,11.83
2022-09-25T06:03:16.686Z,11.85
2022-09-25T06:04:17.252Z,11.82
2022-09-25T06:05:16.725Z,11.80
2022-09-25T06:06:17.231Z,11.49
2022-09-25T06:07:16.688Z,11.53
2022-09-25T06:08:17.177Z,11.57
2022-09-25T06:09:16.643Z,11.57
2022-09-25T06:10:17.100Z,11.60
2022-09-25T06:11:16.559Z,11.60
2022-09-25T06:12:16.393Z,11.55
2022-09-25T06:13:16.814Z,11.55
2022-09-25T06:14:17.253Z,11.55
2022-09-25T06:15:16.687Z,11.93
2022-09-25T06:16:17.173Z,11.94
2022-09-25T06:17:16.651Z,11.97
2022-09-25T06:18:17.093Z,11.99
2022-09-25T06:19:16.546Z,12.01
2022-09-25T06:20:17.035Z,12.07
2022-09-25T06:21:16.530Z,12.04
2022-09-25T06:22:16.379Z,12.03
2022-09-25T06:23:16.833Z,12.03
2022-09-25T06:24:16.303Z,12.01
2022-09-25T06:25:16.770Z,12.01
2022-09-25T06:26:16.340Z,12.03
2022-09-25T06:27:16.789Z,12.04
2022-09-25T06:28:17.207Z,12.03
2022-09-25T06:29:16.632Z,12.03
2022-09-25T06:30:17.065Z,12.00
2022-09-25T06:31:16.585Z,11.65
2022-09-25T06:32:17.185Z,11.64
2022-09-25T06:33:16.652Z,11.70
2022-09-25T06:34:17.100Z,11.72
2022-09-25T06:35:16.572Z,11.72
2022-09-25T06:36:17.043Z,11.77
2022-09-25T06:37:16.493Z,11.77
2022-09-25T06:38:16.964Z,11.72
2022-09-25T06:39:16.415Z,11.80
2022-09-25T06:40:16.905Z,11.82
2022-09-25T06:41:16.544Z,11.82
2022-09-25T06:42:17.109Z,11.84
2022-09-25T06:43:16.560Z,11.81
2022-09-25T06:44:16.991Z,11.77
2022-09-25T06:45:16.477Z,11.80
2022-09-25T06:46:16.939Z,11.89
2022-09-25T06:47:19.142Z,11.88
2022-09-25T06:48:17.024Z,11.91
2022-09-25T06:49:16.504Z,11.89
2022-09-25T06:50:16.971Z,11.88
2022-09-25T06:51:16.472Z,11.93
2022-09-25T06:52:16.981Z,11.99
2022-09-25T06:53:16.432Z,12.03
2022-09-25T06:54:16.901Z,11.99
2022-09-25T06:55:16.358Z,12.02
2022-09-25T06:56:16.796Z,12.08
2022-09-25T06:57:17.241Z,11.96
2022-09-25T06:58:16.675Z,12.01
2022-09-25T06:59:17.116Z,11.93
2022-09-25T07:00:16.553Z,12.02
2022-09-25T07:01:17.021Z,12.06
2022-09-25T07:02:16.794Z,11.99
2022-09-25T07:03:16.538Z,11.99
2022-09-25T07:04:17.012Z,11.98
2022-09-25T07:05:16.451Z,11.98
2022-09-25T07:06:16.889Z,12.05
2022-09-25T07:07:16.341Z,12.08
2022-09-25T07:08:16.793Z,12.09
2022-09-25T07:09:17.260Z,12.09
2022-09-25T07:10:16.726Z,12.13
2022-09-25T07:11:17.153Z,12.12
2022-09-25T07:12:16.625Z,12.05
2022-09-25T07:13:17.073Z,12.16
2022-09-25T07:14:16.519Z,12.19
2022-09-25T07:15:16.968Z,12.18
2022-09-25T07:16:16.475Z,12.18
2022-09-25T07:17:17.053Z,12.20
2022-09-25T07:18:16.590Z,12.13
2022-09-25T07:19:17.046Z,12.19
2022-09-25T07:20:16.504Z,12.33
2022-09-25T07:21:16.970Z,12.32
2022-09-25T07:22:16.455Z,12.35
2022-09-25T07:23:16.908Z,12.33
2022-09-25T07:24:16.339Z,12.39
2022-09-25T07:25:16.778Z,12.47
2022-09-25T07:26:17.209Z,12.50
2022-09-25T07:27:16.681Z,12.47
2022-09-25T07:28:17.098Z,12.53
2022-09-25T07:29:16.553Z,12.44
2022-09-25T07:30:16.973Z,12.41
2022-09-25T07:31:16.585Z,12.50
2022-09-25T07:32:16.556Z,12.53
2022-09-25T07:33:17.036Z,12.57
2022-09-25T07:34:16.508Z,12.53
2022-09-25T07:35:16.980Z,12.53
2022-09-25T07:36:16.442Z,12.58
2022-09-25T07:37:16.920Z,12.58
2022-09-25T07:38:16.396Z,12.60
2022-09-25T07:39:18.476Z,12.67
2022-09-25T07:40:16.381Z,12.63
2022-09-25T07:41:16.932Z,12.71
2022-09-25T07:42:16.491Z,12.70
2022-09-25T07:43:16.914Z,12.63
2022-09-25T07:44:28.834Z,12.61
2022-09-25T07:45:16.761Z,12.66
2022-09-25T07:46:17.258Z,12.66
2022-09-25T07:47:16.832Z,12.70
2022-09-25T07:48:16.373Z,12.67
2022-09-25T07:49:16.863Z,12.67
2022-09-25T07:50:16.342Z,12.74
2022-09-25T07:51:16.829Z,12.82
2022-09-25T07:52:16.429Z,12.81
2022-09-25T07:53:16.880Z,12.81
2022-09-25T07:54:16.351Z,12.84
2022-09-25T07:55:16.770Z,12.92
2022-09-25T07:56:17.193Z,12.88
2022-09-25T07:57:16.662Z,12.96
2022-09-25T07:58:17.095Z,12.94
2022-09-25T07:59:16.509Z,12.94
2022-09-25T08:00:16.962Z,12.94
2022-09-25T08:01:16.400Z,12.95
2022-09-25T08:02:16.580Z,13.01
2022-09-25T08:03:17.365Z,12.98
2022-09-25T08:04:17.055Z,13.05
2022-09-25T08:05:16.552Z,13.01
2022-09-25T08:06:17.164Z,13.12
2022-09-25T08:07:16.700Z,13.08
2022-09-25T08:08:17.133Z,13.16
2022-09-25T08:09:16.566Z,13.25
2022-09-25T08:10:17.007Z,13.30
2022-09-25T08:11:16.448Z,13.33
2022-09-25T08:12:16.382Z,13.34
2022-09-25T08:13:16.826Z,13.43
2022-09-25T08:14:17.302Z,13.42
2022-09-25T08:15:16.739Z,13.42
2022-09-25T08:16:17.242Z,13.49
2022-09-25T08:17:16.879Z,13.44
2022-09-25T08:18:16.356Z,13.51
2022-09-25T08:19:16.819Z,13.53
2022-09-25T08:20:17.564Z,13.58
2022-09-25T08:21:17.064Z,13.63
2022-09-25T08:22:16.478Z,13.77
2022-09-25T08:23:16.926Z,13.84
2022-09-25T08:24:16.347Z,13.81
2022-09-25T08:25:16.793Z,13.90
2022-09-25T08:26:17.230Z,13.77
2022-09-25T08:27:16.696Z,13.95
2022-09-25T08:28:17.131Z,13.98
2022-09-25T08:29:16.607Z,14.00
2022-09-25T08:30:17.083Z,14.02
2022-09-25T08:31:16.631Z,14.01
2022-09-25T08:32:17.138Z,14.05
2022-09-25T08:33:16.626Z,14.04
2022-09-25T08:34:39.301Z,13.91
2022-09-25T08:35:17.002Z,13.77
2022-09-25T08:36:16.483Z,13.90
2022-09-25T08:37:16.944Z,14.05
2022-09-25T08:38:16.434Z,14.08
2022-09-25T08:39:16.859Z,14.20
2022-09-25T08:40:16.349Z,14.07
2022-09-25T08:41:16.857Z,14.01
2022-09-25T08:42:16.297Z,13.97
2022-09-25T08:43:16.731Z,14.05
2022-09-25T08:44:17.165Z,13.98
2022-09-25T08:45:21.378Z,14.18
2022-09-25T08:46:16.852Z,14.35
2022-09-25T08:47:19.392Z,14.26
2022-09-25T08:48:16.400Z,14.26
2022-09-25T08:49:16.868Z,14.44
2022-09-25T08:50:16.318Z,14.35
2022-09-25T08:51:16.822Z,14.35
2022-09-25T08:52:17.242Z,14.33
2022-09-25T08:53:16.681Z,14.39
2022-09-25T08:54:17.119Z,14.44
2022-09-25T08:55:16.563Z,14.55
2022-09-25T08:56:17.105Z,14.59
2022-09-25T08:57:16.570Z,14.53
2022-09-25T08:58:17.028Z,14.56
2022-09-25T08:59:16.444Z,14.57
2022-09-25T09:00:16.879Z,14.43
2022-09-25T09:01:16.346Z,14.49
2022-09-25T09:02:17.344Z,14.47
2022-09-25T09:03:16.843Z,14.59
2022-09-25T09:04:16.339Z,14.59
2022-09-25T09:05:16.799Z,14.49
2022-09-25T09:06:17.285Z,14.46
2022-09-25T09:07:27.432Z,14.49
2022-09-25T09:08:16.912Z,14.47
2022-09-25T09:09:16.333Z,14.60
2022-09-25T09:10:16.767Z,14.59
2022-09-25T09:11:17.205Z,14.46
2022-09-25T09:12:16.875Z,14.37
2022-09-25T09:13:16.310Z,14.36
2022-09-25T09:14:16.738Z,14.44
2022-09-25T09:15:17.268Z,14.37
2022-09-25T09:16:16.745Z,14.33
2022-09-25T09:17:16.316Z,14.29
2022-09-25T09:18:16.776Z,14.18
2022-09-25T09:19:17.250Z,14.20
2022-09-25T09:20:16.764Z,14.26
2022-09-25T09:21:17.240Z,14.30
2022-09-25T09:22:17.010Z,14.25
2022-09-25T09:23:16.439Z,14.23
2022-09-25T09:24:16.876Z,14.15
2022-09-25T09:25:16.295Z,14.15
2022-09-25T09:26:16.755Z,14.08
2022-09-25T09:27:17.190Z,14.08
2022-09-25T09:28:16.607Z,14.02
2022-09-25T09:29:17.103Z,14.09
2022-09-25T09:30:16.599Z,14.22
2022-09-25T09:31:16.368Z,14.30
2022-09-25T09:32:16.571Z,14.28
2022-09-25T09:33:17.015Z,14.23
2022-09-25T09:34:16.502Z,14.22
2022-09-25T09:35:16.950Z,14.36
2022-09-25T09:36:16.401Z,14.40
2022-09-25T09:37:16.828Z,14.59
2022-09-25T09:38:17.247Z,14.59
2022-09-25T09:39:16.662Z,14.53
2022-09-25T09:40:17.235Z,14.53
2022-09-25T09:41:16.999Z,14.57
2022-09-25T09:42:17.195Z,14.71
2022-09-25T09:43:16.617Z,14.68
2022-09-25T09:44:17.056Z,14.81
2022-09-25T09:45:16.523Z,14.87
2022-09-25T09:46:16.990Z,14.84
2022-09-25T09:47:16.551Z,14.83
2022-09-25T09:48:17.046Z,14.92
2022-09-25T09:49:16.513Z,14.88
2022-09-25T09:50:16.984Z,14.85
2022-09-25T09:51:16.425Z,14.94
2022-09-25T09:52:16.769Z,15.02
2022-09-25T09:53:17.191Z,14.99
2022-09-25T09:54:16.637Z,14.98
2022-09-25T09:55:17.058Z,15.04
2022-09-25T09:56:16.501Z,15.11
2022-09-25T09:57:16.965Z,15.19
2022-09-25T09:58:16.412Z,15.33
2022-09-25T09:59:16.896Z,15.15
2022-09-25T10:00:16.418Z,15.02
2022-09-25T10:01:36.985Z,15.11
2022-09-25T10:02:16.558Z,15.08
2022-09-25T10:03:17.379Z,15.15
2022-09-25T10:04:17.001Z,15.19
2022-09-25T10:05:16.453Z,15.29
2022-09-25T10:06:20.441Z,15.23
2022-09-25T10:07:17.094Z,15.29
2022-09-25T10:08:16.522Z,15.45
2022-09-25T10:09:16.955Z,15.63
2022-09-25T10:10:16.432Z,15.90
2022-09-25T10:11:17.090Z,16.00
2022-09-25T10:12:16.374Z,16.01
2022-09-25T10:13:16.833Z,15.56
2022-09-25T10:14:16.293Z,15.64
2022-09-25T10:15:16.777Z,15.71
2022-09-25T10:16:17.323Z,15.59
2022-09-25T10:17:16.923Z,15.63
2022-09-25T10:18:16.419Z,15.64
2022-09-25T10:19:16.872Z,15.73
2022-09-25T10:20:16.334Z,15.67
2022-09-25T10:21:16.768Z,15.81
2022-09-25T10:22:16.967Z,15.64
2022-09-25T10:23:16.789Z,15.56
2022-09-25T10:24:17.216Z,15.47
2022-09-25T10:25:16.676Z,15.82
2022-09-25T10:26:17.098Z,16.02
2022-09-25T10:27:16.565Z,15.95
2022-09-25T10:28:17.006Z,15.92
2022-09-25T10:29:16.494Z,16.29
2022-09-25T10:30:16.970Z,16.35
2022-09-25T10:31:16.479Z,16.53
2022-09-25T10:32:16.618Z,16.52
2022-09-25T10:33:17.157Z,16.11
2022-09-25T10:34:16.614Z,16.19
2022-09-25T10:35:17.065Z,16.29
2022-09-25T10:36:16.517Z,16.22
2022-09-25T10:37:16.952Z,16.07
2022-09-25T10:38:16.395Z,16.15
2022-09-25T10:39:39.384Z,16.19
2022-09-25T10:40:16.359Z,16.36
2022-09-25T10:41:16.862Z,16.19
2022-09-25T10:42:17.212Z,16.21
2022-09-25T10:43:16.678Z,16.18
2022-09-25T10:44:17.152Z,16.21
2022-09-25T10:45:16.624Z,16.18
2022-09-25T10:46:17.121Z,16.22
2022-09-25T10:47:16.709Z,16.22
2022-09-25T10:48:17.161Z,16.21
2022-09-25T10:49:16.643Z,16.17
2022-09-25T10:50:17.109Z,16.28
2022-09-25T10:51:16.553Z,16.31
2022-09-25T10:52:16.953Z,16.24
2022-09-25T10:53:16.387Z,16.12
2022-09-25T10:54:16.851Z,16.09
2022-09-25T10:55:17.280Z,16.01
2022-09-25T10:56:16.704Z,15.92
2022-09-25T10:57:17.166Z,15.90
2022-09-25T10:58:16.632Z,15.97
2022-09-25T10:59:17.220Z,16.04
2022-09-25T11:00:17.125Z,16.02
2022-09-25T11:01:16.639Z,16.14
2022-09-25T11:02:17.266Z,15.94
2022-09-25T11:03:17.416Z,15.84
2022-09-25T11:04:16.977Z,15.74
2022-09-25T11:05:16.485Z,15.64
2022-09-25T11:06:16.917Z,15.67
2022-09-25T11:07:16.338Z,15.81
2022-09-25T11:08:16.767Z,15.78
2022-09-25T11:09:17.225Z,15.71
2022-09-25T11:10:16.649Z,15.57
2022-09-25T11:11:17.095Z,15.56
2022-09-25T11:12:16.993Z,15.50
2022-09-25T11:13:16.532Z,15.47
2022-09-25T11:14:16.981Z,15.38
2022-09-25T11:15:16.451Z,15.32
2022-09-25T11:16:17.234Z,15.35
2022-09-25T11:17:16.812Z,15.28
2022-09-25T11:18:17.320Z,15.22
2022-09-25T11:19:16.901Z,14.84
2022-09-25T11:20:16.615Z,14.63
2022-09-25T11:21:17.187Z,14.20
2022-09-25T11:22:16.542Z,14.07
2022-09-25T11:23:17.014Z,13.94
2022-09-25T11:24:16.462Z,13.91
2022-09-25T11:25:16.897Z,13.77
2022-09-25T11:26:16.333Z,13.64
2022-09-25T11:27:16.793Z,13.53
2022-09-25T11:28:16.578Z,13.50
2022-09-25T11:29:17.370Z,13.34
2022-09-25T11:30:17.074Z,12.98
2022-09-25T11:31:16.621Z,12.84
2022-09-25T11:32:16.619Z,12.60
2022-09-25T11:33:17.099Z,12.33
2022-09-25T11:34:16.548Z,11.95
2022-09-25T11:35:17.020Z,11.84
2022-09-25T11:36:16.483Z,11.46
2022-09-25T11:37:16.927Z,11.37
2022-09-25T11:38:16.374Z,11.25
2022-09-25T11:39:16.807Z,11.26
2022-09-25T11:40:17.294Z,11.22
2022-09-25T11:41:16.814Z,11.22
2022-09-25T11:42:16.537Z,11.25
2022-09-25T11:43:17.033Z,11.26
2022-09-25T11:44:16.537Z,11.27
2022-09-25T11:45:17.019Z,11.30
2022-09-25T11:46:16.525Z,11.30
2022-09-25T11:47:17.166Z,11.33
2022-09-25T11:48:16.657Z,11.34
2022-09-25T11:49:17.365Z,11.40
2022-09-25T11:50:16.625Z,11.47
2022-09-25T11:51:17.053Z,11.50
2022-09-25T11:52:16.858Z,11.53
2022-09-25T11:53:16.277Z,11.51
2022-09-25T11:54:32.300Z,11.54
2022-09-25T11:55:16.989Z,11.63
2022-09-25T11:56:16.405Z,11.74
2022-09-25T11:57:16.857Z,11.75
2022-09-25T11:58:16.315Z,11.82
2022-09-25T11:59:16.771Z,11.86
2022-09-25T12:00:17.282Z,11.81
2022-09-25T12:01:16.821Z,11.77
2022-09-25T12:02:17.303Z,11.78
2022-09-25T12:03:16.862Z,11.74
2022-09-25T12:04:16.320Z,11.72
2022-09-25T12:05:16.761Z,11.70
2022-09-25T12:06:17.220Z,11.61
2022-09-25T12:07:16.636Z,11.64
2022-09-25T12:08:17.067Z,11.65
2022-09-25T12:09:16.498Z,11.63
2022-09-25T12:10:16.923Z,11.60
2022-09-25T12:11:16.365Z,11.65
2022-09-25T12:12:16.868Z,11.65
2022-09-25T12:13:16.315Z,11.64
2022-09-25T12:14:16.782Z,11.70
2022-09-25T12:15:17.432Z,11.71
2022-09-25T12:16:16.968Z,11.68
2022-09-25T12:17:16.554Z,11.75
2022-09-25T12:18:17.011Z,11.82
2022-09-25T12:19:16.433Z,11.89
2022-09-25T12:20:16.864Z,11.92
2022-09-25T12:21:16.298Z,11.91
2022-09-25T12:22:16.819Z,11.92
2022-09-25T12:23:17.274Z,11.86
2022-09-25T12:24:16.693Z,11.86
2022-09-25T12:25:17.154Z,11.95
2022-09-25T12:26:16.640Z,11.96
2022-09-25T12:27:17.116Z,12.13
2022-09-25T12:28:16.600Z,12.12
2022-09-25T12:29:17.047Z,12.25
2022-09-25T12:30:16.519Z,12.37
2022-09-25T12:31:17.281Z,12.26
2022-09-25T12:32:16.847Z,12.40
2022-09-25T12:33:16.337Z,12.16
2022-09-25T12:34:16.775Z,12.26
2022-09-25T12:35:17.232Z,12.47
2022-09-25T12:36:16.685Z,12.41
2022-09-25T12:37:17.108Z,12.37
2022-09-25T12:38:16.542Z,12.43
2022-09-25T12:39:16.974Z,12.39
2022-09-25T12:40:16.742Z,12.47
2022-09-25T12:41:16.316Z,12.28
2022-09-25T12:42:16.596Z,12.36
2022-09-25T12:43:17.094Z,12.33
2022-09-25T12:44:16.605Z,12.39
2022-09-25T12:45:17.065Z,12.41
2022-09-25T12:46:16.655Z,12.49
2022-09-25T12:47:17.213Z,12.50
2022-09-25T12:48:16.635Z,12.41
2022-09-25T12:49:17.096Z,12.51
2022-09-25T12:50:16.534Z,12.50
2022-09-25T12:51:16.958Z,12.47
2022-09-25T12:52:16.374Z,12.50